sensor_id;sensor_type;location;lat;lon;timestamp;pressure;altitude;pressure_sealevel;temperature;humidity
70103;BME280;57470;50.034;15.256;2023-04-06T00:00:32;99910.59;;;-0.27;83.96
70103;BME280;57470;50.034;15.256;2023-04-06T00:02:58;99912.41;;;-0.33;83.79
70103;BME280;57470;50.034;15.256;2023-04-06T00:05:23;99915.16;;;-0.41;83.51
70103;BME280;57470;50.034;15.256;2023-04-06T00:07:49;99915.13;;;-0.38;84.03
70103;BME280;57470;50.034;15.256;2023-04-06T00:10:16;99910.03;;;-0.46;85.13
70103;BME280;57470;50.034;15.256;2023-04-06T00:12:41;99917.59;;;-0.83;87.21
70103;BME280;57470;50.034;15.256;2023-04-06T00:15:07;99917.66;;;-0.86;87.21
70103;BME280;57470;50.034;15.256;2023-04-06T00:17:33;99921.75;;;-0.71;86.53
70103;BME280;57470;50.034;15.256;2023-04-06T00:19:58;99920.06;;;-0.73;86.58
70103;BME280;57470;50.034;15.256;2023-04-06T00:22:24;99918.22;;;-0.67;85.93
70103;BME280;57470;50.034;15.256;2023-04-06T00:24:50;99916.47;;;-0.66;85.21
70103;BME280;57470;50.034;15.256;2023-04-06T00:27:15;99917.41;;;-0.70;85.27
70103;BME280;57470;50.034;15.256;2023-04-06T00:29:41;99916.31;;;-0.57;85.69
70103;BME280;57470;50.034;15.256;2023-04-06T00:32:06;99913.06;;;-0.71;85.59
70103;BME280;57470;50.034;15.256;2023-04-06T00:34:31;99907.75;;;-0.65;85.44
70103;BME280;57470;50.034;15.256;2023-04-06T00:36:57;99903.41;;;-0.66;85.29
70103;BME280;57470;50.034;15.256;2023-04-06T00:39:22;99905.16;;;-0.67;85.00
70103;BME280;57470;50.034;15.256;2023-04-06T00:41:51;99907.00;;;-0.72;84.63
70103;BME280;57470;50.034;15.256;2023-04-06T00:44:18;99907.06;;;-0.77;85.17
70103;BME280;57470;50.034;15.256;2023-04-06T00:46:44;99908.00;;;-0.81;85.08
70103;BME280;57470;50.034;15.256;2023-04-06T00:49:10;99914.19;;;-0.89;85.20
70103;BME280;57470;50.034;15.256;2023-04-06T00:51:35;99905.44;;;-0.85;85.79
70103;BME280;57470;50.034;15.256;2023-04-06T00:54:01;99903.75;;;-0.89;85.66
70103;BME280;57470;50.034;15.256;2023-04-06T00:56:26;99903.75;;;-0.88;86.06
70103;BME280;57470;50.034;15.256;2023-04-06T00:58:52;99896.75;;;-0.86;85.68
70103;BME280;57470;50.034;15.256;2023-04-06T01:01:17;99899.41;;;-0.89;86.31
70103;BME280;57470;50.034;15.256;2023-04-06T01:03:43;99896.06;;;-0.97;85.86
70103;BME280;57470;50.034;15.256;2023-04-06T01:06:09;99889.09;;;-0.98;86.06
70103;BME280;57470;50.034;15.256;2023-04-06T01:08:36;99897.97;;;-1.08;84.95
70103;BME280;57470;50.034;15.256;2023-04-06T01:11:01;99895.38;;;-1.09;86.02
70103;BME280;57470;50.034;15.256;2023-04-06T01:13:27;99881.38;;;-1.05;86.43
70103;BME280;57470;50.034;15.256;2023-04-06T01:15:52;99889.22;;;-1.05;86.33
70103;BME280;57470;50.034;15.256;2023-04-06T01:18:18;99888.31;;;-1.03;86.83
70103;BME280;57470;50.034;15.256;2023-04-06T01:20:43;99892.69;;;-1.05;86.75
70103;BME280;57470;50.034;15.256;2023-04-06T01:23:09;99890.94;;;-1.03;86.90
70103;BME280;57470;50.034;15.256;2023-04-06T01:25:34;99893.69;;;-1.12;86.95
70103;BME280;57470;50.034;15.256;2023-04-06T01:28:00;99891.16;;;-1.18;87.25
70103;BME280;57470;50.034;15.256;2023-04-06T01:30:25;99891.31;;;-1.27;88.01
70103;BME280;57470;50.034;15.256;2023-04-06T01:32:51;99893.06;;;-1.29;87.91
70103;BME280;57470;50.034;15.256;2023-04-06T01:35:18;99892.31;;;-1.39;87.50
70103;BME280;57470;50.034;15.256;2023-04-06T01:37:44;99895.78;;;-1.37;87.77
70103;BME280;57470;50.034;15.256;2023-04-06T01:40:10;99896.63;;;-1.35;86.99
70103;BME280;57470;50.034;15.256;2023-04-06T01:42:36;99898.25;;;-1.28;86.82
70103;BME280;57470;50.034;15.256;2023-04-06T01:45:02;99893.97;;;-1.33;87.48
70103;BME280;57470;50.034;15.256;2023-04-06T01:47:27;99891.56;;;-1.48;87.74
70103;BME280;57470;50.034;15.256;2023-04-06T01:49:53;99898.41;;;-1.40;87.06
70103;BME280;57470;50.034;15.256;2023-04-06T01:52:18;99898.41;;;-1.38;87.61
70103;BME280;57470;50.034;15.256;2023-04-06T01:54:44;99893.22;;;-1.41;87.17
70103;BME280;57470;50.034;15.256;2023-04-06T01:57:10;99891.47;;;-1.39;87.25
70103;BME280;57470;50.034;15.256;2023-04-06T01:59:36;99895.13;;;-1.53;88.00
70103;BME280;57470;50.034;15.256;2023-04-06T02:02:01;99889.06;;;-1.53;87.99
70103;BME280;57470;50.034;15.256;2023-04-06T02:04:28;99900.19;;;-1.42;87.12
70103;BME280;57470;50.034;15.256;2023-04-06T02:06:55;99886.44;;;-1.53;87.84
70103;BME280;57470;50.034;15.256;2023-04-06T02:09:22;99895.94;;;-1.51;86.75
70103;BME280;57470;50.034;15.256;2023-04-06T02:11:49;99888.19;;;-1.55;86.51
70103;BME280;57470;50.034;15.256;2023-04-06T02:14:16;99879.59;;;-1.62;87.92
70103;BME280;57470;50.034;15.256;2023-04-06T02:16:42;99894.38;;;-1.62;87.16
70103;BME280;57470;50.034;15.256;2023-04-06T02:19:09;99886.44;;;-1.55;87.71
70103;BME280;57470;50.034;15.256;2023-04-06T02:21:36;99890.94;;;-1.67;88.17
70103;BME280;57470;50.034;15.256;2023-04-06T02:24:03;99888.19;;;-1.55;88.06
70103;BME280;57470;50.034;15.256;2023-04-06T02:26:29;99890.81;;;-1.57;87.91
70103;BME280;57470;50.034;15.256;2023-04-06T02:28:57;99885.72;;;-1.64;87.53
70103;BME280;57470;50.034;15.256;2023-04-06T02:31:23;99891.81;;;-1.68;87.54
70103;BME280;57470;50.034;15.256;2023-04-06T02:33:50;99890.25;;;-1.80;87.59
70103;BME280;57470;50.034;15.256;2023-04-06T02:36:17;99897.13;;;-1.73;88.53
70103;BME280;57470;50.034;15.256;2023-04-06T02:38:43;99891.91;;;-1.73;87.57
70103;BME280;57470;50.034;15.256;2023-04-06T02:41:10;99892.31;;;-2.06;89.36
70103;BME280;57470;50.034;15.256;2023-04-06T02:43:37;99887.78;;;-1.92;87.95
70103;BME280;57470;50.034;15.256;2023-04-06T02:46:04;99892.19;;;-1.97;88.43
70103;BME280;57470;50.034;15.256;2023-04-06T02:48:31;99888.56;;;-1.87;89.20
70103;BME280;57470;50.034;15.256;2023-04-06T02:51:01;99893.78;;;-1.85;87.65
70103;BME280;57470;50.034;15.256;2023-04-06T02:53:28;99891.16;;;-1.84;88.11
70103;BME280;57470;50.034;15.256;2023-04-06T02:55:54;99893.00;;;-1.92;88.48
70103;BME280;57470;50.034;15.256;2023-04-06T02:58:21;99901.72;;;-1.96;88.35
70103;BME280;57470;50.034;15.256;2023-04-06T03:00:46;99893.78;;;-1.85;88.04
70103;BME280;57470;50.034;15.256;2023-04-06T03:03:11;99898.25;;;-1.97;87.91
70103;BME280;57470;50.034;15.256;2023-04-06T03:05:37;99889.53;;;-1.93;87.53
70103;BME280;57470;50.034;15.256;2023-04-06T03:08:02;99901.72;;;-1.96;87.21
70103;BME280;57470;50.034;15.256;2023-04-06T03:10:28;99897.34;;;-1.94;87.10
70103;BME280;57470;50.034;15.256;2023-04-06T03:12:53;99909.59;;;-1.99;87.07
70103;BME280;57470;50.034;15.256;2023-04-06T03:15:18;99909.72;;;-2.11;87.98
70103;BME280;57470;50.034;15.256;2023-04-06T03:17:44;99902.78;;;-2.12;87.78
70103;BME280;57470;50.034;15.256;2023-04-06T03:20:09;99910.56;;;-2.08;86.80
70103;BME280;57470;50.034;15.256;2023-04-06T03:22:35;99905.38;;;-2.14;86.50
70103;BME280;57470;50.034;15.256;2023-04-06T03:25:00;99913.16;;;-2.06;87.19
70103;BME280;57470;50.034;15.256;2023-04-06T03:27:26;99914.91;;;-2.11;87.54
70103;BME280;57470;50.034;15.256;2023-04-06T03:29:52;99916.66;;;-2.10;88.03
70103;BME280;57470;50.034;15.256;2023-04-06T03:32:17;99918.47;;;-2.15;88.61
70103;BME280;57470;50.034;15.256;2023-04-06T03:34:42;99916.75;;;-2.21;88.66
70103;BME280;57470;50.034;15.256;2023-04-06T03:37:08;99917.63;;;-2.23;88.52
70103;BME280;57470;50.034;15.256;2023-04-06T03:39:33;99918.56;;;-2.24;87.82
70103;BME280;57470;50.034;15.256;2023-04-06T03:41:59;99914.06;;;-2.13;87.62
70103;BME280;57470;50.034;15.256;2023-04-06T03:44:24;99916.75;;;-2.21;87.37
70103;BME280;57470;50.034;15.256;2023-04-06T03:46:49;99921.06;;;-2.17;86.60
70103;BME280;57470;50.034;15.256;2023-04-06T03:49:15;99921.16;;;-2.28;87.97
70103;BME280;57470;50.034;15.256;2023-04-06T03:51:40;99922.91;;;-2.25;87.98
70103;BME280;57470;50.034;15.256;2023-04-06T03:54:06;99924.72;;;-2.33;87.45
70103;BME280;57470;50.034;15.256;2023-04-06T03:56:31;99935.38;;;-2.60;89.63
70103;BME280;57470;50.034;15.256;2023-04-06T03:58:57;99936.03;;;-2.37;88.99
70103;BME280;57470;50.034;15.256;2023-04-06T04:01:22;99929.91;;;-2.33;89.27
70103;BME280;57470;50.034;15.256;2023-04-06T04:03:47;99938.63;;;-2.36;88.27
70103;BME280;57470;50.034;15.256;2023-04-06T04:06:13;99940.34;;;-2.35;87.55
70103;BME280;57470;50.034;15.256;2023-04-06T04:08:38;99940.34;;;-2.33;87.07
70103;BME280;57470;50.034;15.256;2023-04-06T04:11:04;99936.09;;;-2.45;87.65
70103;BME280;57470;50.034;15.256;2023-04-06T04:13:29;99938.69;;;-2.42;88.00
70103;BME280;57470;50.034;15.256;2023-04-06T04:15:55;99933.47;;;-2.42;86.96
70103;BME280;57470;50.034;15.256;2023-04-06T04:18:20;99933.44;;;-2.40;87.50
70103;BME280;57470;50.034;15.256;2023-04-06T04:20:46;99936.97;;;-2.47;88.68
70103;BME280;57470;50.034;15.256;2023-04-06T04:23:11;99938.66;;;-2.40;88.52
70103;BME280;57470;50.034;15.256;2023-04-06T04:25:37;99936.91;;;-2.41;87.93
70103;BME280;57470;50.034;15.256;2023-04-06T04:28:03;99936.97;;;-2.44;86.83
70103;BME280;57470;50.034;15.256;2023-04-06T04:30:29;99943.06;;;-2.48;87.55
70103;BME280;57470;50.034;15.256;2023-04-06T04:32:54;99948.25;;;-2.47;87.97
70103;BME280;57470;50.034;15.256;2023-04-06T04:35:20;99941.38;;;-2.51;87.68
70103;BME280;57470;50.034;15.256;2023-04-06T04:37:45;99955.13;;;-2.37;87.41
70103;BME280;57470;50.034;15.256;2023-04-06T04:40:11;99945.59;;;-2.41;87.50
70103;BME280;57470;50.034;15.256;2023-04-06T04:42:37;99945.50;;;-2.30;86.49
70103;BME280;57470;50.034;15.256;2023-04-06T04:45:02;99951.66;;;-2.39;87.04
70103;BME280;57470;50.034;15.256;2023-04-06T04:47:27;99950.78;;;-2.36;86.78
70103;BME280;57470;50.034;15.256;2023-04-06T04:49:53;99956.00;;;-2.41;87.65
70103;BME280;57470;50.034;15.256;2023-04-06T04:52:18;99948.16;;;-2.35;88.34
70103;BME280;57470;50.034;15.256;2023-04-06T04:54:44;99949.13;;;-2.49;88.74
70103;BME280;57470;50.034;15.256;2023-04-06T04:57:12;99950.88;;;-2.50;90.92
70103;BME280;57470;50.034;15.256;2023-04-06T04:59:37;99952.53;;;-2.40;90.50
70103;BME280;57470;50.034;15.256;2023-04-06T05:02:03;99962.94;;;-2.35;90.06
70103;BME280;57470;50.034;15.256;2023-04-06T05:04:28;99962.84;;;-2.29;89.70
70103;BME280;57470;50.034;15.256;2023-04-06T05:07:07;99954.09;;;-2.20;89.87
70103;BME280;57470;50.034;15.256;2023-04-06T05:09:33;99954.84;;;-2.06;89.52
70103;BME280;57470;50.034;15.256;2023-04-06T05:11:59;99953.03;;;-1.98;89.00
70103;BME280;57470;50.034;15.256;2023-04-06T05:14:26;99955.53;;;-1.91;88.20
70103;BME280;57470;50.034;15.256;2023-04-06T05:16:51;99958.16;;;-1.94;89.01
70103;BME280;57470;50.034;15.256;2023-04-06T05:19:17;99958.94;;;-1.84;89.69
70103;BME280;57470;50.034;15.256;2023-04-06T05:21:42;99964.13;;;-1.81;90.20
70103;BME280;57470;50.034;15.256;2023-04-06T05:24:08;99960.53;;;-1.71;90.50
70103;BME280;57470;50.034;15.256;2023-04-06T05:26:33;99962.13;;;-1.61;90.36
70103;BME280;57470;50.034;15.256;2023-04-06T05:28:59;99961.22;;;-1.54;89.63
70103;BME280;57470;50.034;15.256;2023-04-06T05:31:24;99966.25;;;-1.41;90.21
70103;BME280;57470;50.034;15.256;2023-04-06T05:33:50;99967.09;;;-1.36;89.79
70103;BME280;57470;50.034;15.256;2023-04-06T05:36:16;99969.56;;;-1.27;89.74
70103;BME280;57470;50.034;15.256;2023-04-06T05:38:41;99967.75;;;-1.21;89.87
70103;BME280;57470;50.034;15.256;2023-04-06T05:41:06;99967.47;;;-1.01;89.68
70103;BME280;57470;50.034;15.256;2023-04-06T05:43:32;99977.78;;;-0.92;90.00
70103;BME280;57470;50.034;15.256;2023-04-06T05:45:57;99967.19;;;-0.81;90.19
70103;BME280;57470;50.034;15.256;2023-04-06T05:48:23;99965.50;;;-0.85;92.42
70103;BME280;57470;50.034;15.256;2023-04-06T05:50:49;99966.34;;;-0.82;92.76
70103;BME280;57470;50.034;15.256;2023-04-06T05:53:15;99967.63;;;-0.53;92.28
70103;BME280;57470;50.034;15.256;2023-04-06T05:55:41;99968.47;;;-0.51;93.19
70103;BME280;57470;50.034;15.256;2023-04-06T05:58:06;99969.31;;;-0.49;93.85
70103;BME280;57470;50.034;15.256;2023-04-06T06:00:32;99967.31;;;-0.33;93.65
70103;BME280;57470;50.034;15.256;2023-04-06T06:02:57;99964.97;;;0.00;92.27
70103;BME280;57470;50.034;15.256;2023-04-06T06:05:23;99965.34;;;-0.21;92.91
70103;BME280;57470;50.034;15.256;2023-04-06T06:07:48;99964.44;;;0.29;93.48
70103;BME280;57470;50.034;15.256;2023-04-06T06:10:14;99955.97;;;0.61;91.30
70103;BME280;57470;50.034;15.256;2023-04-06T06:12:40;99962.31;;;0.90;90.92
70103;BME280;57470;50.034;15.256;2023-04-06T06:15:06;99950.84;;;0.97;89.91
70103;BME280;57470;50.034;15.256;2023-04-06T06:17:31;99948.56;;;1.19;90.55
70103;BME280;57470;50.034;15.256;2023-04-06T06:19:57;99951.00;;;1.26;91.48
70103;BME280;57470;50.034;15.256;2023-04-06T06:22:22;99956.63;;;1.09;90.69
70103;BME280;57470;50.034;15.256;2023-04-06T06:24:47;99957.94;;;1.29;90.79
70103;BME280;57470;50.034;15.256;2023-04-06T06:27:15;99953.88;;;1.52;90.49
70103;BME280;57470;50.034;15.256;2023-04-06T06:29:40;99955.81;;;2.14;90.07
70103;BME280;57470;50.034;15.256;2023-04-06T06:32:06;99959.19;;;1.85;90.23
70103;BME280;57470;50.034;15.256;2023-04-06T06:34:33;99956.47;;;1.88;87.68
70103;BME280;57470;50.034;15.256;2023-04-06T06:36:58;99953.75;;;2.87;87.31
70103;BME280;57470;50.034;15.256;2023-04-06T06:39:24;99947.66;;;3.42;84.62
70103;BME280;57470;50.034;15.256;2023-04-06T06:41:50;99944.44;;;3.05;82.50
70103;BME280;57470;50.034;15.256;2023-04-06T06:44:15;99946.81;;;3.68;82.86
70103;BME280;57470;50.034;15.256;2023-04-06T06:46:41;99942.34;;;4.21;82.62
70103;BME280;57470;50.034;15.256;2023-04-06T06:49:07;99938.19;;;4.39;79.70
70103;BME280;57470;50.034;15.256;2023-04-06T06:51:32;99940.16;;;4.57;78.48
70103;BME280;57470;50.034;15.256;2023-04-06T06:53:57;99939.75;;;5.14;78.97
70103;BME280;57470;50.034;15.256;2023-04-06T06:56:23;99939.59;;;5.19;77.32
70103;BME280;57470;50.034;15.256;2023-04-06T06:58:48;99930.66;;;5.65;77.43
70103;BME280;57470;50.034;15.256;2023-04-06T07:01:14;99930.00;;;5.16;75.88
70103;BME280;57470;50.034;15.256;2023-04-06T07:03:39;99937.59;;;5.68;76.81
70103;BME280;57470;50.034;15.256;2023-04-06T07:06:05;99932.66;;;6.22;75.79
70103;BME280;57470;50.034;15.256;2023-04-06T07:08:30;99940.38;;;6.47;72.80
70103;BME280;57470;50.034;15.256;2023-04-06T07:10:55;99940.31;;;6.49;72.82
70103;BME280;57470;50.034;15.256;2023-04-06T07:13:21;99926.16;;;6.50;71.51
70103;BME280;57470;50.034;15.256;2023-04-06T07:15:51;99935.84;;;6.30;71.52
70103;BME280;57470;50.034;15.256;2023-04-06T07:18:17;99933.72;;;5.76;72.80
70103;BME280;57470;50.034;15.256;2023-04-06T07:20:43;99933.00;;;6.15;71.63
70103;BME280;57470;50.034;15.256;2023-04-06T07:23:09;99935.91;;;6.68;72.39
70103;BME280;57470;50.034;15.256;2023-04-06T07:25:34;99938.38;;;7.10;71.14
70103;BME280;57470;50.034;15.256;2023-04-06T07:28:00;99924.66;;;7.57;69.52
70103;BME280;57470;50.034;15.256;2023-04-06T07:30:26;99921.00;;;7.59;68.58
70103;BME280;57470;50.034;15.256;2023-04-06T07:32:52;99917.50;;;8.27;68.17
70103;BME280;57470;50.034;15.256;2023-04-06T07:35:20;99918.16;;;8.50;67.71
70103;BME280;57470;50.034;15.256;2023-04-06T07:37:46;99914.41;;;8.19;66.11
70103;BME280;57470;50.034;15.256;2023-04-06T07:40:11;99909.97;;;8.70;65.11
70103;BME280;57470;50.034;15.256;2023-04-06T07:42:37;99908.38;;;8.50;66.71
70103;BME280;57470;50.034;15.256;2023-04-06T07:45:02;99912.09;;;7.96;65.82
70103;BME280;57470;50.034;15.256;2023-04-06T07:47:28;99908.88;;;8.07;67.25
70103;BME280;57470;50.034;15.256;2023-04-06T07:49:55;99916.66;;;8.10;67.08
70103;BME280;57470;50.034;15.256;2023-04-06T07:52:23;99921.69;;;8.66;66.37
70103;BME280;57470;50.034;15.256;2023-04-06T07:54:48;99916.53;;;7.96;65.22
70103;BME280;57470;50.034;15.256;2023-04-06T07:57:14;99914.41;;;7.85;64.97
70103;BME280;57470;50.034;15.256;2023-04-06T07:59:40;99912.31;;;7.91;67.03
70103;BME280;57470;50.034;15.256;2023-04-06T08:02:05;99909.56;;;7.59;66.20
70103;BME280;57470;50.034;15.256;2023-04-06T08:04:31;99904.91;;;7.98;66.74
70103;BME280;57470;50.034;15.256;2023-04-06T08:06:56;99900.91;;;7.72;66.47
70103;BME280;57470;50.034;15.256;2023-04-06T08:09:22;99904.66;;;8.20;64.94
70103;BME280;57470;50.034;15.256;2023-04-06T08:11:47;99900.38;;;8.17;66.72
70103;BME280;57470;50.034;15.256;2023-04-06T08:14:14;99903.84;;;8.52;65.39
70103;BME280;57470;50.034;15.256;2023-04-06T08:16:40;99898.34;;;7.71;65.56
70103;BME280;57470;50.034;15.256;2023-04-06T08:19:06;99894.69;;;8.08;64.84
70103;BME280;57470;50.034;15.256;2023-04-06T08:21:34;99907.06;;;8.42;65.05
70103;BME280;57470;50.034;15.256;2023-04-06T08:24:00;99899.13;;;7.73;64.38
70103;BME280;57470;50.034;15.256;2023-04-06T08:26:25;99903.09;;;7.81;65.17
70103;BME280;57470;50.034;15.256;2023-04-06T08:28:51;99899.75;;;8.29;63.91
70103;BME280;57470;50.034;15.256;2023-04-06T08:31:16;99900.03;;;8.58;64.17
70103;BME280;57470;50.034;15.256;2023-04-06T08:33:42;99892.34;;;8.69;63.97
70103;BME280;57470;50.034;15.256;2023-04-06T08:36:09;99897.00;;;8.97;63.41
70103;BME280;57470;50.034;15.256;2023-04-06T08:38:35;99886.63;;;8.77;61.35
70103;BME280;57470;50.034;15.256;2023-04-06T08:41:07;99883.94;;;8.61;61.13
70103;BME280;57470;50.034;15.256;2023-04-06T08:43:35;99881.28;;;8.61;60.83
70103;BME280;57470;50.034;15.256;2023-04-06T08:46:01;99882.72;;;8.51;61.84
70103;BME280;57470;50.034;15.256;2023-04-06T08:48:27;99878.31;;;8.17;61.30
70103;BME280;57470;50.034;15.256;2023-04-06T08:50:53;99879.94;;;8.70;61.18
70103;BME280;57470;50.034;15.256;2023-04-06T08:53:20;99883.09;;;8.60;61.00
70103;BME280;57470;50.034;15.256;2023-04-06T08:55:45;99882.06;;;8.13;60.52
70103;BME280;57470;50.034;15.256;2023-04-06T08:58:11;99876.91;;;8.60;60.70
70103;BME280;57470;50.034;15.256;2023-04-06T09:00:38;99867.19;;;8.10;63.85
70103;BME280;57470;50.034;15.256;2023-04-06T09:03:05;99874.31;;;8.25;60.79
70103;BME280;57470;50.034;15.256;2023-04-06T09:05:32;99873.91;;;8.50;62.76
70103;BME280;57470;50.034;15.256;2023-04-06T09:07:57;99867.00;;;8.48;62.80
70103;BME280;57470;50.034;15.256;2023-04-06T09:10:23;99866.44;;;8.90;60.68
70103;BME280;57470;50.034;15.256;2023-04-06T09:12:50;99862.19;;;9.03;60.44
70103;BME280;57470;50.034;15.256;2023-04-06T09:15:20;99852.31;;;9.21;59.48
70103;BME280;57470;50.034;15.256;2023-04-06T09:17:46;99851.88;;;9.13;58.24
70103;BME280;57470;50.034;15.256;2023-04-06T09:20:12;99853.31;;;9.34;58.62
70103;BME280;57470;50.034;15.256;2023-04-06T09:22:38;99848.47;;;8.95;58.14
70103;BME280;57470;50.034;15.256;2023-04-06T09:25:05;99856.75;;;9.36;57.49
70103;BME280;57470;50.034;15.256;2023-04-06T09:27:36;99854.34;;;8.69;54.75
70103;BME280;57470;50.034;15.256;2023-04-06T09:30:07;99852.53;;;9.48;56.50
70103;BME280;57470;50.034;15.256;2023-04-06T09:32:32;99853.69;;;8.96;54.85
70103;BME280;57470;50.034;15.256;2023-04-06T09:35:10;99847.56;;;9.41;55.02
70103;BME280;57470;50.034;15.256;2023-04-06T09:37:35;99841.63;;;9.52;53.01
70103;BME280;57470;50.034;15.256;2023-04-06T09:40:05;99839.00;;;9.66;54.29
70103;BME280;57470;50.034;15.256;2023-04-06T09:42:31;99839.53;;;9.43;53.95
70103;BME280;57470;50.034;15.256;2023-04-06T09:44:56;99837.56;;;9.47;51.99
70103;BME280;57470;50.034;15.256;2023-04-06T09:47:22;99840.69;;;9.53;54.74
70103;BME280;57470;50.034;15.256;2023-04-06T09:49:56;99838.09;;;9.37;55.03
70103;BME280;57470;50.034;15.256;2023-04-06T09:52:26;99837.34;;;9.04;54.79
70103;BME280;57470;50.034;15.256;2023-04-06T09:54:52;99831.91;;;9.37;54.71
70103;BME280;57470;50.034;15.256;2023-04-06T09:57:34;99834.38;;;9.56;54.41
70103;BME280;57470;50.034;15.256;2023-04-06T10:05:44;99825.06;;;10.07;51.17
70103;BME280;57470;50.034;15.256;2023-04-06T10:08:13;99820.31;;;10.12;50.64
70103;BME280;57470;50.034;15.256;2023-04-06T10:10:38;99816.28;;;9.17;54.10
70103;BME280;57470;50.034;15.256;2023-04-06T10:13:04;99817.34;;;9.88;54.09
70103;BME280;57470;50.034;15.256;2023-04-06T10:15:31;99824.94;;;9.80;53.15
70103;BME280;57470;50.034;15.256;2023-04-06T10:17:58;99823.00;;;9.38;53.78
70103;BME280;57470;50.034;15.256;2023-04-06T10:20:38;99813.91;;;9.12;52.21
70103;BME280;57470;50.034;15.256;2023-04-06T10:23:19;99819.09;;;9.14;52.46
70103;BME280;57470;50.034;15.256;2023-04-06T10:25:57;99813.16;;;8.94;51.59
70103;BME280;57470;50.034;15.256;2023-04-06T10:28:23;99818.28;;;9.73;50.63
70103;BME280;57470;50.034;15.256;2023-04-06T10:30:49;99808.63;;;9.86;51.70
70103;BME280;57470;50.034;15.256;2023-04-06T10:35:40;99809.66;;;10.28;53.05
70103;BME280;57470;50.034;15.256;2023-04-06T10:38:06;99804.97;;;10.60;51.56
70103;BME280;57470;50.034;15.256;2023-04-06T10:40:35;99779.00;;;8.88;55.23
70103;BME280;57470;50.034;15.256;2023-04-06T10:43:12;99802.03;;;9.63;51.92
70103;BME280;57470;50.034;15.256;2023-04-06T10:45:39;99807.72;;;10.15;50.63
70103;BME280;57470;50.034;15.256;2023-04-06T10:48:18;99796.41;;;10.12;49.13
70103;BME280;57470;50.034;15.256;2023-04-06T10:50:53;99785.69;;;10.56;48.98
70103;BME280;57470;50.034;15.256;2023-04-06T10:53:26;99787.94;;;10.76;49.68
70103;BME280;57470;50.034;15.256;2023-04-06T10:55:54;99787.13;;;10.62;48.52
70103;BME280;57470;50.034;15.256;2023-04-06T10:58:24;99781.34;;;10.55;47.89
70103;BME280;57470;50.034;15.256;2023-04-06T11:00:50;99784.19;;;11.20;48.17
70103;BME280;57470;50.034;15.256;2023-04-06T11:03:16;99773.03;;;11.01;47.33
70103;BME280;57470;50.034;15.256;2023-04-06T11:05:45;99770.13;;;11.18;46.58
70103;BME280;57470;50.034;15.256;2023-04-06T11:08:25;99766.69;;;12.08;46.26
70103;BME280;57470;50.034;15.256;2023-04-06T11:10:50;99771.00;;;11.71;46.66
70103;BME280;57470;50.034;15.256;2023-04-06T11:13:16;99777.00;;;10.81;46.99
70103;BME280;57470;50.034;15.256;2023-04-06T11:15:42;99772.78;;;10.50;47.41
70103;BME280;57470;50.034;15.256;2023-04-06T11:18:08;99762.69;;;10.69;47.29
70103;BME280;57470;50.034;15.256;2023-04-06T11:20:33;99762.84;;;11.07;46.91
70103;BME280;57470;50.034;15.256;2023-04-06T11:22:59;99759.97;;;11.50;45.87
70103;BME280;57470;50.034;15.256;2023-04-06T11:25:25;99764.03;;;11.43;46.23
70103;BME280;57470;50.034;15.256;2023-04-06T11:27:53;99754.31;;;11.42;46.45
70103;BME280;57470;50.034;15.256;2023-04-06T11:30:18;99766.63;;;10.35;46.12
70103;BME280;57470;50.034;15.256;2023-04-06T11:32:45;99754.97;;;10.79;46.48
70103;BME280;57470;50.034;15.256;2023-04-06T11:35:21;99758.06;;;10.85;47.71
70103;BME280;57470;50.034;15.256;2023-04-06T11:37:50;99743.38;;;11.19;46.46
70103;BME280;57470;50.034;15.256;2023-04-06T11:40:21;99746.94;;;11.45;45.67
70103;BME280;57470;50.034;15.256;2023-04-06T11:42:54;99746.72;;;11.75;45.52
70103;BME280;57470;50.034;15.256;2023-04-06T11:45:20;99735.97;;;11.89;43.99
70103;BME280;57470;50.034;15.256;2023-04-06T11:47:55;99738.59;;;12.64;44.89
70103;BME280;57470;50.034;15.256;2023-04-06T11:50:21;99731.06;;;11.96;43.55
70103;BME280;57470;50.034;15.256;2023-04-06T11:52:57;99729.31;;;12.69;44.78
70103;BME280;57470;50.034;15.256;2023-04-06T11:55:23;99719.13;;;12.51;44.59
70103;BME280;57470;50.034;15.256;2023-04-06T11:57:49;99722.50;;;12.03;45.11
70103;BME280;57470;50.034;15.256;2023-04-06T12:00:17;99722.63;;;12.15;44.41
70103;BME280;57470;50.034;15.256;2023-04-06T12:02:46;99723.03;;;11.83;44.68
70103;BME280;57470;50.034;15.256;2023-04-06T12:05:11;99715.91;;;11.19;44.63
70103;BME280;57470;50.034;15.256;2023-04-06T12:07:37;99718.31;;;10.97;44.30
70103;BME280;57470;50.034;15.256;2023-04-06T12:10:03;99712.78;;;11.52;44.82
70103;BME280;57470;50.034;15.256;2023-04-06T12:12:29;99708.63;;;11.60;44.91
70103;BME280;57470;50.034;15.256;2023-04-06T12:14:55;99716.00;;;11.95;44.46
70103;BME280;57470;50.034;15.256;2023-04-06T12:17:21;99708.97;;;13.03;45.39
70103;BME280;57470;50.034;15.256;2023-04-06T12:19:46;99714.13;;;13.41;42.98
70103;BME280;57470;50.034;15.256;2023-04-06T12:22:12;99704.69;;;12.53;42.88
70103;BME280;57470;50.034;15.256;2023-04-06T12:24:37;99699.03;;;12.82;44.06
70103;BME280;57470;50.034;15.256;2023-04-06T12:27:03;99702.63;;;12.69;44.15
70103;BME280;57470;50.034;15.256;2023-04-06T12:29:28;99699.34;;;12.53;43.92
70103;BME280;57470;50.034;15.256;2023-04-06T12:31:54;99704.59;;;12.06;44.90
70103;BME280;57470;50.034;15.256;2023-04-06T12:34:19;99697.91;;;11.75;44.02
70103;BME280;57470;50.034;15.256;2023-04-06T12:36:44;99695.19;;;11.49;44.03
70103;BME280;57470;50.034;15.256;2023-04-06T12:39:10;99693.38;;;11.50;44.20
70103;BME280;57470;50.034;15.256;2023-04-06T12:41:36;99686.81;;;11.03;44.57
70103;BME280;57470;50.034;15.256;2023-04-06T12:44:02;99688.31;;;11.07;45.36
70103;BME280;57470;50.034;15.256;2023-04-06T12:46:27;99688.44;;;11.18;44.93
70103;BME280;57470;50.034;15.256;2023-04-06T12:48:56;99679.28;;;12.24;46.38
70103;BME280;57470;50.034;15.256;2023-04-06T12:51:22;99684.25;;;12.89;43.47
70103;BME280;57470;50.034;15.256;2023-04-06T12:53:48;99666.22;;;12.68;43.47
70103;BME280;57470;50.034;15.256;2023-04-06T12:56:15;99668.72;;;12.83;43.65